createdAt,value
2017-07-07T00:00:00.328Z,1008.13
2017-07-07T00:01:00.324Z,1008.13
2017-07-07T00:02:00.301Z,1008.13
2017-07-07T00:03:00.291Z,1008.05
2017-07-07T00:04:00.283Z,1007.97
2017-07-07T00:05:00.261Z,1007.92
2017-07-07T00:06:00.253Z,1007.94
2017-07-07T00:07:00.235Z,1007.93
2017-07-07T00:08:00.222Z,1007.95
2017-07-07T00:09:00.212Z,1007.91
2017-07-07T00:10:00.201Z,1007.94
2017-07-07T00:11:00.182Z,1007.92
2017-07-07T00:12:00.169Z,1007.93
2017-07-07T00:13:00.163Z,1007.95
2017-07-07T00:14:00.141Z,1007.93
2017-07-07T00:15:00.133Z,1007.87
2017-07-07T00:16:00.121Z,1007.83
2017-07-07T00:17:00.110Z,1007.83
2017-07-07T00:18:00.092Z,1007.84
2017-07-07T00:19:00.077Z,1007.81
2017-07-07T00:20:00.067Z,1007.83
2017-07-07T00:21:00.054Z,1007.79
2017-07-07T00:22:00.042Z,1007.78
2017-07-07T00:23:00.025Z,1007.71
2017-07-07T00:24:00.011Z,1007.66
2017-07-07T00:25:00.003Z,1007.6
2017-07-07T00:25:59.992Z,1007.56
2017-07-07T00:26:59.976Z,1007.5
2017-07-07T00:27:59.962Z,1007.47
2017-07-07T00:28:59.953Z,1007.44
2017-07-07T00:29:59.938Z,1007.41
2017-07-07T00:30:59.923Z,1007.38
2017-07-07T00:31:59.912Z,1007.35
2017-07-07T00:32:59.898Z,1007.38
2017-07-07T00:33:59.885Z,1007.36
2017-07-07T00:34:59.876Z,1007.39
2017-07-07T00:35:59.854Z,1007.39
2017-07-07T00:36:59.843Z,1007.46
2017-07-07T00:37:59.829Z,1007.44
2017-07-07T00:38:59.815Z,1007.46
2017-07-07T00:39:59.805Z,1007.43
2017-07-07T00:40:59.794Z,1007.41
2017-07-07T00:41:59.779Z,1007.36
2017-07-07T00:42:59.765Z,1007.34
2017-07-07T00:43:59.748Z,1007.28
2017-07-07T00:44:59.737Z,1007.29
2017-07-07T00:45:59.725Z,1007.32
2017-07-07T00:46:59.712Z,1007.23
2017-07-07T00:47:59.694Z,1007.17
2017-07-07T00:48:59.687Z,1007.15
2017-07-07T00:49:59.672Z,1007.17
2017-07-07T00:50:59.663Z,1007.14
2017-07-07T00:51:59.641Z,1007.08
2017-07-07T00:52:59.631Z,1007.07
2017-07-07T00:53:59.613Z,1007.02
2017-07-07T00:54:59.600Z,1007.02
2017-07-07T00:55:59.585Z,1006.96
2017-07-07T00:56:59.582Z,1006.95
2017-07-07T00:57:59.565Z,1006.97
2017-07-07T00:58:59.546Z,1007
2017-07-07T00:59:59.531Z,1007.04
2017-07-07T01:00:59.523Z,1007.04
2017-07-07T01:01:59.504Z,1007.08
2017-07-07T01:02:59.489Z,1007.08
2017-07-07T01:03:59.477Z,1007.07
2017-07-07T01:04:59.461Z,1007.08
2017-07-07T01:05:59.452Z,1007.1
2017-07-07T01:06:59.437Z,1007.08
2017-07-07T01:07:59.440Z,1007.05
2017-07-07T01:08:59.412Z,1007.11
2017-07-07T01:09:59.399Z,1007.11
2017-07-07T01:10:59.380Z,1007.05
2017-07-07T01:11:59.452Z,1007.05
2017-07-07T01:12:59.356Z,1007.06
2017-07-07T01:13:59.446Z,1007.11
2017-07-07T01:14:59.328Z,1007.16
2017-07-07T01:15:59.321Z,1007.2
2017-07-07T01:16:59.302Z,1007.26
2017-07-07T01:17:59.385Z,1007.3
2017-07-07T01:18:59.272Z,1007.23
2017-07-07T01:19:59.315Z,1007.2
2017-07-07T01:20:59.247Z,1007.21
2017-07-07T01:21:59.284Z,1007.21
2017-07-07T01:22:59.221Z,1007.19
2017-07-07T01:23:59.255Z,1007.21
2017-07-07T01:24:59.194Z,1007.23
2017-07-07T01:25:59.182Z,1007.26
2017-07-07T01:26:59.166Z,1007.3
2017-07-07T01:27:59.151Z,1007.31
2017-07-07T01:28:59.135Z,1007.31
2017-07-07T01:29:59.125Z,1007.24
2017-07-07T01:30:59.113Z,1007.18
2017-07-07T01:31:59.094Z,1007.21
2017-07-07T01:32:59.079Z,1007.25
2017-07-07T01:33:59.119Z,1007.28
2017-07-07T01:34:59.052Z,1007.31
2017-07-07T01:35:59.040Z,1007.31
2017-07-07T01:36:59.034Z,1007.31
2017-07-07T01:37:59.012Z,1007.36
2017-07-07T01:38:59.000Z,1007.34
2017-07-07T01:39:58.986Z,1007.38
2017-07-07T01:40:58.974Z,1007.41
2017-07-07T01:41:58.964Z,1007.44
2017-07-07T01:42:58.947Z,1007.44
2017-07-07T01:43:58.930Z,1007.49
2017-07-07T01:44:58.925Z,1007.52
2017-07-07T01:45:58.906Z,1007.5
2017-07-07T01:46:58.893Z,1007.57
2017-07-07T01:47:58.876Z,1007.64
2017-07-07T01:48:58.863Z,1007.7
2017-07-07T01:49:58.851Z,1007.76
2017-07-07T01:50:58.836Z,1007.77
2017-07-07T01:51:58.826Z,1007.84
2017-07-07T01:52:58.811Z,1007.81
2017-07-07T01:53:58.796Z,1007.77
2017-07-07T01:54:58.782Z,1007.76
2017-07-07T01:55:58.766Z,1007.74
2017-07-07T01:56:58.756Z,1007.73
2017-07-07T01:57:58.741Z,1007.79
2017-07-07T01:58:58.727Z,1007.74
2017-07-07T01:59:58.714Z,1007.65
2017-07-07T02:00:58.703Z,1007.6
2017-07-07T02:01:58.690Z,1007.6
2017-07-07T02:02:58.672Z,1007.49
2017-07-07T02:03:58.659Z,1007.46
2017-07-07T02:04:58.643Z,1007.41
2017-07-07T02:05:58.635Z,1007.36
2017-07-07T02:06:58.621Z,1007.25
2017-07-07T02:07:58.602Z,1007.08
2017-07-07T02:08:58.595Z,1007.14
2017-07-07T02:09:58.581Z,1007.18
2017-07-07T02:10:58.567Z,1007.25
2017-07-07T02:11:58.555Z,1007.14
2017-07-07T02:12:58.535Z,1007.02
2017-07-07T02:13:58.523Z,1006.93
2017-07-07T02:14:58.510Z,1006.91
2017-07-07T02:15:58.493Z,1006.86
2017-07-07T02:16:58.479Z,1006.78
2017-07-07T02:17:58.474Z,1006.78
2017-07-07T02:18:58.452Z,1006.78
2017-07-07T02:19:58.443Z,1006.73
2017-07-07T02:20:58.421Z,1006.65
2017-07-07T02:21:58.415Z,1006.61
2017-07-07T02:22:58.402Z,1006.69
2017-07-07T02:23:58.383Z,1006.8
2017-07-07T02:24:58.373Z,1007.04
2017-07-07T02:25:58.357Z,1007.11
2017-07-07T02:26:58.343Z,1007.25
2017-07-07T02:27:58.334Z,1007.32
2017-07-07T02:28:58.316Z,1007.35
2017-07-07T02:29:58.305Z,1007.39
2017-07-07T02:30:58.290Z,1007.38
2017-07-07T02:31:58.273Z,1007.43
2017-07-07T02:32:58.259Z,1007.39
2017-07-07T02:33:58.255Z,1007.36
2017-07-07T02:34:58.232Z,1007.43
2017-07-07T02:35:58.226Z,1007.44
2017-07-07T02:36:58.213Z,1007.43
2017-07-07T02:37:58.193Z,1007.37
2017-07-07T02:38:58.177Z,1007.32
2017-07-07T02:39:58.167Z,1007.31
2017-07-07T02:40:58.156Z,1007.29
2017-07-07T02:41:58.144Z,1007.32
2017-07-07T02:42:58.125Z,1007.28
2017-07-07T02:43:58.116Z,1007.27
2017-07-07T02:44:58.105Z,1007.25
2017-07-07T02:45:58.083Z,1007.2
2017-07-07T02:46:58.069Z,1007.09
2017-07-07T02:47:58.055Z,1007.01
2017-07-07T02:48:58.041Z,1007.05
2017-07-07T02:49:58.033Z,1007.06
2017-07-07T02:50:58.023Z,1007.2
2017-07-07T02:51:58.006Z,1007.25
2017-07-07T02:52:57.983Z,1007.31
2017-07-07T02:53:57.976Z,1007.25
2017-07-07T02:54:57.966Z,1007.22
2017-07-07T02:55:57.945Z,1007.26
2017-07-07T02:56:57.932Z,1007.27
2017-07-07T02:57:57.913Z,1007.34
2017-07-07T02:58:57.903Z,1007.42
2017-07-07T02:59:57.891Z,1007.46
2017-07-07T03:00:57.883Z,1007.53
2017-07-07T03:01:57.864Z,1007.58
2017-07-07T03:02:57.852Z,1007.6
2017-07-07T03:03:57.833Z,1007.61
2017-07-07T03:04:57.821Z,1007.63
2017-07-07T03:05:57.808Z,1007.61
2017-07-07T03:06:57.793Z,1007.57
2017-07-07T03:07:57.782Z,1007.56
2017-07-07T03:08:57.767Z,1007.58
2017-07-07T03:09:57.753Z,1007.63
2017-07-07T03:10:57.743Z,1007.65
2017-07-07T03:11:57.724Z,1007.61
2017-07-07T03:12:57.714Z,1007.56
2017-07-07T03:13:57.696Z,1007.54
2017-07-07T03:14:57.683Z,1007.57
2017-07-07T03:15:57.674Z,1007.52
2017-07-07T03:16:57.665Z,1007.49
2017-07-07T03:17:57.651Z,1007.54
2017-07-07T03:18:57.632Z,1007.54
2017-07-07T03:19:57.624Z,1007.59
2017-07-07T03:20:57.603Z,1007.56
2017-07-07T03:21:57.593Z,1007.58
2017-07-07T03:22:57.574Z,1007.53
2017-07-07T03:23:57.565Z,1007.54
2017-07-07T03:24:57.549Z,1007.55
2017-07-07T03:25:57.542Z,1007.55
2017-07-07T03:26:57.531Z,1007.57
2017-07-07T03:27:57.509Z,1007.55
2017-07-07T03:28:57.504Z,1007.57
2017-07-07T03:29:57.485Z,1007.56
2017-07-07T03:30:57.475Z,1007.57
2017-07-07T03:31:57.452Z,1007.59
2017-07-07T03:32:57.446Z,1007.6
2017-07-07T03:33:57.440Z,1007.58
2017-07-07T03:34:57.414Z,1007.57
2017-07-07T03:35:57.401Z,1007.52
2017-07-07T03:36:57.393Z,1007.55
2017-07-07T03:37:57.376Z,1007.47
2017-07-07T03:38:57.365Z,1007.39
2017-07-07T03:39:57.352Z,1007.32
2017-07-07T03:40:57.333Z,1007.19
2017-07-07T03:41:57.321Z,1007.2
2017-07-07T03:42:57.313Z,1007.16
2017-07-07T03:43:57.296Z,1007.08
2017-07-07T03:44:57.283Z,1006.98
2017-07-07T03:45:57.279Z,1006.86
2017-07-07T03:46:57.263Z,1006.78
2017-07-07T03:47:57.244Z,1006.68
2017-07-07T03:48:57.228Z,1006.48
2017-07-07T03:49:57.209Z,1006.31
2017-07-07T03:50:57.201Z,1006.09
2017-07-07T03:51:57.287Z,1005.92
2017-07-07T03:52:57.173Z,1005.62
2017-07-07T03:53:57.264Z,1005.44
2017-07-07T03:54:57.142Z,1005.5
2017-07-07T03:55:57.133Z,1005.63
2017-07-07T03:56:57.175Z,1005.73
2017-07-07T03:57:57.102Z,1005.83
2017-07-07T03:58:57.083Z,1005.83
2017-07-07T03:59:57.071Z,1005.85
2017-07-07T04:00:57.051Z,1005.85
2017-07-07T04:01:57.038Z,1005.84
2017-07-07T04:02:57.035Z,1005.85
2017-07-07T04:03:57.113Z,1005.84
2017-07-07T04:04:56.999Z,1005.81
2017-07-07T04:05:57.083Z,1005.83
2017-07-07T04:06:56.974Z,1005.84
2017-07-07T04:07:56.980Z,1005.86
2017-07-07T04:08:56.943Z,1006.04
2017-07-07T04:09:56.978Z,1006.28
2017-07-07T04:10:56.909Z,1006.47
2017-07-07T04:11:56.903Z,1006.51
2017-07-07T04:12:56.882Z,1006.53
2017-07-07T04:13:56.919Z,1006.5
2017-07-07T04:14:56.852Z,1006.48
2017-07-07T04:15:56.846Z,1006.5
2017-07-07T04:16:56.832Z,1006.48
2017-07-07T04:17:56.874Z,1006.36
2017-07-07T04:18:56.806Z,1006.31
2017-07-07T04:19:56.782Z,1006.3
2017-07-07T04:20:56.770Z,1006.33
2017-07-07T04:21:56.760Z,1006.35
2017-07-07T04:22:56.742Z,1006.37
2017-07-07T04:23:56.732Z,1006.39
2017-07-07T04:24:56.722Z,1006.36
2017-07-07T04:25:56.701Z,1006.36
2017-07-07T04:26:56.692Z,1006.44
2017-07-07T04:27:56.672Z,1006.46
2017-07-07T04:28:56.661Z,1006.47
2017-07-07T04:29:56.650Z,1006.52
2017-07-07T04:30:56.632Z,1006.5
2017-07-07T04:31:56.623Z,1006.48
2017-07-07T04:32:56.612Z,1006.44
2017-07-07T04:33:56.593Z,1006.44
2017-07-07T04:34:56.580Z,1006.41
2017-07-07T04:35:56.571Z,1006.46
2017-07-07T04:36:56.553Z,1006.43
2017-07-07T04:37:56.542Z,1006.41
2017-07-07T04:38:56.523Z,1006.45
2017-07-07T04:39:56.510Z,1006.41
2017-07-07T04:40:56.502Z,1006.41
2017-07-07T04:41:56.486Z,1006.43
2017-07-07T04:42:56.472Z,1006.41
2017-07-07T04:43:56.465Z,1006.45
2017-07-07T04:44:56.442Z,1006.48
2017-07-07T04:45:56.434Z,1006.45
2017-07-07T04:46:56.413Z,1006.49
2017-07-07T04:47:56.404Z,1006.49
2017-07-07T04:48:56.392Z,1006.46
2017-07-07T04:49:56.393Z,1006.49
2017-07-07T04:50:56.362Z,1006.46
2017-07-07T04:51:56.352Z,1006.47
2017-07-07T04:52:56.341Z,1006.51
2017-07-07T04:53:56.322Z,1006.51
2017-07-07T04:54:56.312Z,1006.55
2017-07-07T04:55:56.312Z,1006.59
2017-07-07T04:56:56.282Z,1006.59
2017-07-07T04:57:56.272Z,1006.63
2017-07-07T04:58:56.258Z,1006.65
2017-07-07T04:59:56.253Z,1006.63
2017-07-07T05:00:56.231Z,1006.66
2017-07-07T05:01:56.221Z,1006.66
2017-07-07T05:02:56.207Z,1006.71
2017-07-07T05:03:56.194Z,1006.72
2017-07-07T05:04:56.181Z,1006.74
2017-07-07T05:05:56.175Z,1006.75
2017-07-07T05:06:56.151Z,1006.77
2017-07-07T05:07:56.141Z,1006.77
2017-07-07T05:08:56.129Z,1006.75
2017-07-07T05:09:56.123Z,1006.73
2017-07-07T05:10:56.100Z,1006.75
2017-07-07T05:11:56.094Z,1006.82
2017-07-07T05:12:56.080Z,1006.81
2017-07-07T05:13:56.061Z,1006.84
2017-07-07T05:14:56.055Z,1006.88
2017-07-07T05:15:56.039Z,1006.86
2017-07-07T05:16:56.029Z,1006.9
2017-07-07T05:17:56.016Z,1006.93
2017-07-07T05:18:56.001Z,1006.91
2017-07-07T05:19:55.991Z,1006.95
2017-07-07T05:20:55.976Z,1006.97
2017-07-07T05:21:55.961Z,1006.98
2017-07-07T05:22:55.945Z,1007.04
2017-07-07T05:23:55.938Z,1007.05
2017-07-07T05:24:55.924Z,1007.08
2017-07-07T05:25:55.911Z,1007.05
2017-07-07T05:26:55.902Z,1007.06
2017-07-07T05:27:55.891Z,1007.06
2017-07-07T05:28:55.882Z,1006.99
2017-07-07T05:29:55.861Z,1006.98
2017-07-07T05:30:55.852Z,1007
2017-07-07T05:31:55.839Z,1006.99
2017-07-07T05:32:55.822Z,1007.01
2017-07-07T05:33:55.810Z,1006.98
2017-07-07T05:34:55.802Z,1007.02
2017-07-07T05:35:55.792Z,1007.03
2017-07-07T05:36:55.776Z,1007.08
2017-07-07T05:37:55.762Z,1007.1
2017-07-07T05:38:55.759Z,1007.07
2017-07-07T05:39:55.737Z,1007.09
2017-07-07T05:40:55.728Z,1007.11
2017-07-07T05:41:55.715Z,1007.15
2017-07-07T05:42:55.702Z,1007.15
2017-07-07T05:43:55.695Z,1007.15
2017-07-07T05:44:55.677Z,1007.16
2017-07-07T05:45:55.662Z,1007.15
2017-07-07T05:46:55.651Z,1007.18
2017-07-07T05:47:55.643Z,1007.13
2017-07-07T05:48:55.635Z,1007.13
2017-07-07T05:49:55.615Z,1007.15
2017-07-07T05:50:55.602Z,1007.13
2017-07-07T05:51:55.593Z,1007.12
2017-07-07T05:52:55.584Z,1007.11
2017-07-07T05:53:55.571Z,1007.14
2017-07-07T05:54:55.555Z,1007.11
2017-07-07T05:55:55.541Z,1007.14
2017-07-07T05:56:55.531Z,1007.13
2017-07-07T05:57:55.517Z,1007.15
2017-07-07T05:58:55.502Z,1007.17
2017-07-07T05:59:55.507Z,1007.18
2017-07-07T06:00:55.477Z,1007.17
2017-07-07T06:01:55.473Z,1007.18
2017-07-07T06:02:55.451Z,1007.21
2017-07-07T06:03:55.442Z,1007.19
2017-07-07T06:04:55.435Z,1007.2
2017-07-07T06:05:55.423Z,1007.22
2017-07-07T06:06:55.414Z,1007.22
2017-07-07T06:07:55.405Z,1007.24
2017-07-07T06:08:55.384Z,1007.24
2017-07-07T06:09:55.374Z,1007.26
2017-07-07T06:10:55.357Z,1007.25
2017-07-07T06:11:55.343Z,1007.22
2017-07-07T06:12:55.334Z,1007.27
2017-07-07T06:13:55.321Z,1007.25
2017-07-07T06:14:55.315Z,1007.24
2017-07-07T06:15:55.305Z,1007.26
2017-07-07T06:16:55.282Z,1007.28
2017-07-07T06:17:55.273Z,1007.24
2017-07-07T06:18:55.262Z,1007.22
2017-07-07T06:19:55.256Z,1007.21
2017-07-07T06:20:55.236Z,1007.21
2017-07-07T06:21:55.222Z,1007.22
2017-07-07T06:22:55.208Z,1007.22
2017-07-07T06:23:55.199Z,1007.19
2017-07-07T06:24:55.193Z,1007.17
2017-07-07T06:25:55.184Z,1007.16
2017-07-07T06:26:55.174Z,1007.19
2017-07-07T06:27:55.177Z,1007.17
2017-07-07T06:28:55.143Z,1007.19
2017-07-07T06:29:55.128Z,1007.24
2017-07-07T06:30:55.112Z,1007.18
2017-07-07T06:31:55.103Z,1007.19
2017-07-07T06:32:55.094Z,1007.21
2017-07-07T06:33:55.075Z,1007.17
2017-07-07T06:34:55.063Z,1007.17
2017-07-07T06:35:55.152Z,1007.2
2017-07-07T06:36:55.041Z,1007.2
2017-07-07T06:37:55.035Z,1007.14
2017-07-07T06:38:55.021Z,1007.2
2017-07-07T06:39:55.011Z,1007.16
2017-07-07T06:40:54.995Z,1007.18
2017-07-07T06:41:55.029Z,1007.16
2017-07-07T06:42:54.967Z,1007.19
2017-07-07T06:43:54.964Z,1007.21
2017-07-07T06:44:54.942Z,1007.21
2017-07-07T06:45:54.932Z,1007.26
2017-07-07T06:46:54.922Z,1007.24
2017-07-07T06:47:54.965Z,1007.21
2017-07-07T06:48:54.902Z,1007.2
2017-07-07T06:49:54.882Z,1007.2
2017-07-07T06:50:54.872Z,1007.17
2017-07-07T06:51:54.862Z,1007.17
2017-07-07T06:52:54.851Z,1007.15
2017-07-07T06:53:54.841Z,1007.14
2017-07-07T06:54:54.825Z,1007.16
2017-07-07T06:55:54.810Z,1007.11
2017-07-07T06:56:54.803Z,1007.11
2017-07-07T06:57:54.793Z,1007.15
2017-07-07T06:58:54.783Z,1007.13
2017-07-07T06:59:54.767Z,1007.2
2017-07-07T07:00:54.761Z,1007.21
2017-07-07T07:01:54.740Z,1007.19
2017-07-07T07:02:54.729Z,1007.12
2017-07-07T07:03:54.722Z,1007.12
2017-07-07T07:04:54.713Z,1007.12
2017-07-07T07:05:54.703Z,1007.1
2017-07-07T07:06:54.683Z,1007.11
2017-07-07T07:07:54.673Z,1007.12
2017-07-07T07:08:54.660Z,1007.12
2017-07-07T07:09:54.653Z,1007.14
2017-07-07T07:10:54.633Z,1007.12
2017-07-07T07:11:54.624Z,1007.11
2017-07-07T07:12:54.614Z,1007.11
2017-07-07T07:13:54.600Z,1007.11
2017-07-07T07:14:54.591Z,1007.13
2017-07-07T07:15:54.584Z,1007.17
2017-07-07T07:16:54.565Z,1007.18
2017-07-07T07:17:54.557Z,1007.17
2017-07-07T07:18:54.542Z,1007.22
2017-07-07T07:19:54.531Z,1007.21
2017-07-07T07:20:54.518Z,1007.22
2017-07-07T07:21:54.507Z,1007.22
2017-07-07T07:22:54.498Z,1007.2
2017-07-07T07:23:54.492Z,1007.24
2017-07-07T07:24:54.482Z,1007.22
2017-07-07T07:25:54.466Z,1007.22
2017-07-07T07:26:54.455Z,1007.25
2017-07-07T07:27:54.442Z,1007.19
2017-07-07T07:28:54.437Z,1007.27
2017-07-07T07:29:54.425Z,1007.26
2017-07-07T07:30:54.468Z,1007.29
2017-07-07T07:31:54.400Z,1007.29
2017-07-07T07:32:54.389Z,1007.36
2017-07-07T07:33:54.377Z,1007.36
2017-07-07T07:34:54.364Z,1007.42
2017-07-07T07:35:54.358Z,1007.43
2017-07-07T07:36:54.353Z,1007.49
2017-07-07T07:37:54.332Z,1007.48
2017-07-07T07:38:54.323Z,1007.49
2017-07-07T07:39:54.311Z,1007.52
2017-07-07T07:40:54.302Z,1007.5
2017-07-07T07:41:54.293Z,1007.52
2017-07-07T07:42:54.280Z,1007.54
2017-07-07T07:43:54.270Z,1007.58
2017-07-07T07:44:54.258Z,1007.56
2017-07-07T07:45:54.250Z,1007.55
2017-07-07T07:46:54.240Z,1007.56
2017-07-07T07:47:54.225Z,1007.58
2017-07-07T07:48:54.213Z,1007.6
2017-07-07T07:49:54.202Z,1007.57
2017-07-07T07:50:54.194Z,1007.59
2017-07-07T07:51:54.188Z,1007.59
2017-07-07T07:52:54.174Z,1007.59
2017-07-07T07:53:54.168Z,1007.58
2017-07-07T07:54:54.155Z,1007.57
2017-07-07T07:55:54.147Z,1007.57
2017-07-07T07:56:54.134Z,1007.58
2017-07-07T07:57:54.124Z,1007.58
2017-07-07T07:58:54.121Z,1007.54
2017-07-07T07:59:54.107Z,1007.62
2017-07-07T08:00:54.093Z,1007.66
2017-07-07T08:01:54.085Z,1007.65
2017-07-07T08:02:54.079Z,1007.73
2017-07-07T08:03:54.069Z,1007.73
2017-07-07T08:04:54.054Z,1007.74
2017-07-07T08:05:54.046Z,1007.73
2017-07-07T08:06:54.039Z,1007.67
2017-07-07T08:07:54.039Z,1007.65
2017-07-07T08:08:54.018Z,1007.6
2017-07-07T08:09:54.008Z,1007.54
2017-07-07T08:10:54.001Z,1007.56
2017-07-07T08:11:53.992Z,1007.55
2017-07-07T08:12:53.980Z,1007.55
2017-07-07T08:13:53.972Z,1007.49
2017-07-07T08:14:53.959Z,1007.5
2017-07-07T08:15:53.951Z,1007.56
2017-07-07T08:16:53.942Z,1007.55
2017-07-07T08:17:53.932Z,1007.51
2017-07-07T08:18:53.923Z,1007.49
2017-07-07T08:19:53.917Z,1007.5
2017-07-07T08:20:53.919Z,1007.53
2017-07-07T08:21:53.909Z,1007.48
2017-07-07T08:22:53.887Z,1007.5
2017-07-07T08:23:53.889Z,1007.47
2017-07-07T08:24:53.870Z,1007.47
2017-07-07T08:25:53.861Z,1007.45
2017-07-07T08:26:53.851Z,1007.44
2017-07-07T08:27:53.841Z,1007.43
2017-07-07T08:28:53.835Z,1007.43
2017-07-07T08:29:53.822Z,1007.42
2017-07-07T08:30:53.819Z,1007.41
2017-07-07T08:31:53.814Z,1007.41
2017-07-07T08:32:53.799Z,1007.42
2017-07-07T08:33:53.891Z,1007.4
2017-07-07T08:34:53.782Z,1007.36
2017-07-07T08:35:53.774Z,1007.4
2017-07-07T08:36:53.761Z,1007.38
2017-07-07T08:37:53.813Z,1007.38
2017-07-07T08:38:53.751Z,1007.35
2017-07-07T08:39:53.738Z,1007.39
2017-07-07T08:40:53.740Z,1007.35
2017-07-07T08:41:53.724Z,1007.4
2017-07-07T08:42:53.715Z,1007.4
2017-07-07T08:43:53.711Z,1007.4
2017-07-07T08:44:53.703Z,1007.36
2017-07-07T08:45:53.704Z,1007.37
2017-07-07T08:46:53.684Z,1007.38
2017-07-07T08:47:53.673Z,1007.32
2017-07-07T08:48:53.664Z,1007.35
2017-07-07T08:49:53.662Z,1007.34
2017-07-07T08:50:53.665Z,1007.32
2017-07-07T08:51:53.646Z,1007.34
2017-07-07T08:52:53.639Z,1007.33
2017-07-07T08:53:53.630Z,1007.36
2017-07-07T08:54:53.619Z,1007.35
2017-07-07T08:55:53.614Z,1007.37
2017-07-07T08:56:53.608Z,1007.37
2017-07-07T08:57:53.601Z,1007.4
2017-07-07T08:58:53.591Z,1007.37
2017-07-07T08:59:53.582Z,1007.4
2017-07-07T09:00:53.576Z,1007.41
2017-07-07T09:01:53.570Z,1007.45
2017-07-07T09:02:53.571Z,1007.46
2017-07-07T09:03:53.559Z,1007.48
2017-07-07T09:04:53.550Z,1007.46
2017-07-07T09:05:53.542Z,1007.44
2017-07-07T09:06:53.535Z,1007.48
2017-07-07T09:07:53.529Z,1007.51
2017-07-07T09:08:53.522Z,1007.55
2017-07-07T09:09:53.511Z,1007.54
2017-07-07T09:10:53.511Z,1007.58
2017-07-07T09:11:53.499Z,1007.53
2017-07-07T09:12:53.490Z,1007.59
2017-07-07T09:13:53.487Z,1007.6
2017-07-07T09:14:53.480Z,1007.59
2017-07-07T09:15:53.480Z,1007.58
2017-07-07T09:16:53.472Z,1007.52
2017-07-07T09:17:53.462Z,1007.57
2017-07-07T09:18:53.519Z,1007.58
2017-07-07T09:19:53.451Z,1007.57
2017-07-07T09:20:53.452Z,1007.59
2017-07-07T09:21:53.438Z,1007.5
2017-07-07T09:22:53.433Z,1007.55
2017-07-07T09:23:53.440Z,1007.53
2017-07-07T09:24:53.440Z,1007.51
2017-07-07T09:25:53.420Z,1007.51
2017-07-07T09:26:53.419Z,1007.61
2017-07-07T09:27:53.411Z,1007.49
2017-07-07T09:28:53.402Z,1007.49
2017-07-07T09:29:53.402Z,1007.45
2017-07-07T09:30:53.395Z,1007.53
2017-07-07T09:31:53.394Z,1007.53
2017-07-07T09:32:53.390Z,1007.5
2017-07-07T09:33:53.378Z,1007.55
2017-07-07T09:34:53.381Z,1007.57
2017-07-07T09:35:53.370Z,1007.59
2017-07-07T09:36:53.365Z,1007.58
2017-07-07T09:37:53.371Z,1007.56
2017-07-07T09:38:53.364Z,1007.52
2017-07-07T09:39:53.349Z,1007.49
2017-07-07T09:40:53.349Z,1007.51
2017-07-07T09:41:53.345Z,1007.52
2017-07-07T09:42:53.334Z,1007.51
2017-07-07T09:43:53.335Z,1007.44
2017-07-07T09:44:53.330Z,1007.53
2017-07-07T09:45:53.377Z,1007.58
2017-07-07T09:46:53.316Z,1007.54
2017-07-07T09:47:53.344Z,1007.54
2017-07-07T09:48:53.310Z,1007.5
2017-07-07T09:49:53.305Z,1007.48
2017-07-07T09:50:53.305Z,1007.47
2017-07-07T09:51:53.300Z,1007.5
2017-07-07T09:52:53.301Z,1007.41
2017-07-07T09:53:53.286Z,1007.4
2017-07-07T09:54:53.282Z,1007.43
2017-07-07T09:55:53.279Z,1007.56
2017-07-07T09:56:53.276Z,1007.41
2017-07-07T09:57:53.270Z,1007.43
2017-07-07T09:58:53.271Z,1007.34
2017-07-07T09:59:53.262Z,1007.39
2017-07-07T10:00:53.257Z,1007.43
2017-07-07T10:01:53.256Z,1007.45
2017-07-07T10:02:53.250Z,1007.41
2017-07-07T10:03:53.245Z,1007.43
2017-07-07T10:04:53.248Z,1007.36
2017-07-07T10:05:53.243Z,1007.42
2017-07-07T10:06:53.235Z,1007.35
2017-07-07T10:07:53.230Z,1007.41
2017-07-07T10:08:53.226Z,1007.41
2017-07-07T10:09:53.219Z,1007.41
2017-07-07T10:10:53.219Z,1007.42
2017-07-07T10:11:53.210Z,1007.32
2017-07-07T10:12:53.209Z,1007.35
2017-07-07T10:13:53.200Z,1007.35
2017-07-07T10:14:53.270Z,1007.36
2017-07-07T10:15:53.191Z,1007.39
2017-07-07T10:16:53.187Z,1007.41
2017-07-07T10:17:53.183Z,1007.37
2017-07-07T10:18:53.327Z,1007.44
2017-07-07T10:19:53.170Z,1007.47
2017-07-07T10:20:53.215Z,1007.48
2017-07-07T10:21:53.170Z,1007.45
2017-07-07T10:22:53.155Z,1007.41
2017-07-07T10:23:53.146Z,1007.39
2017-07-07T10:24:53.151Z,1007.4
2017-07-07T10:25:53.142Z,1007.43
2017-07-07T10:26:53.132Z,1007.42
2017-07-07T10:27:53.122Z,1007.43
2017-07-07T10:28:53.119Z,1007.42
2017-07-07T10:29:53.120Z,1007.4
2017-07-07T10:30:53.106Z,1007.36
2017-07-07T10:31:53.100Z,1007.4
2017-07-07T10:32:53.098Z,1007.36
2017-07-07T10:33:53.090Z,1007.34
2017-07-07T10:34:53.090Z,1007.36
2017-07-07T10:35:53.080Z,1007.36
2017-07-07T10:36:53.072Z,1007.35
2017-07-07T10:37:53.066Z,1007.37
2017-07-07T10:38:53.060Z,1007.39
2017-07-07T10:39:53.052Z,1007.4
2017-07-07T10:40:53.052Z,1007.41
2017-07-07T10:41:53.043Z,1007.41
2017-07-07T10:42:53.036Z,1007.41
2017-07-07T10:43:53.030Z,1007.41
2017-07-07T10:44:53.021Z,1007.36
2017-07-07T10:45:53.019Z,1007.43
2017-07-07T10:46:53.007Z,1007.4
2017-07-07T10:47:53.004Z,1007.4
2017-07-07T10:48:53.001Z,1007.37
2017-07-07T10:49:53.002Z,1007.38
2017-07-07T10:50:52.981Z,1007.37
2017-07-07T10:51:52.975Z,1007.35
2017-07-07T10:52:52.974Z,1007.31
2017-07-07T10:53:52.962Z,1007.3
2017-07-07T10:54:52.963Z,1007.33
2017-07-07T10:55:52.951Z,1007.29
2017-07-07T10:56:52.941Z,1007.27
2017-07-07T10:57:52.933Z,1007.28
2017-07-07T10:58:52.931Z,1007.24
2017-07-07T10:59:52.922Z,1007.27
2017-07-07T11:00:52.915Z,1007.29
2017-07-07T11:01:52.911Z,1007.26
2017-07-07T11:02:52.901Z,1007.3
2017-07-07T11:03:52.896Z,1007.26
2017-07-07T11:04:52.893Z,1007.24
2017-07-07T11:05:52.886Z,1007.22
2017-07-07T11:06:52.874Z,1007.26
2017-07-07T11:07:52.872Z,1007.28
2017-07-07T11:08:52.882Z,1007.28
2017-07-07T11:09:52.861Z,1007.25
2017-07-07T11:10:52.855Z,1007.32
2017-07-07T11:11:52.870Z,1007.31
2017-07-07T11:12:52.841Z,1007.33
2017-07-07T11:13:52.840Z,1007.28
2017-07-07T11:14:52.830Z,1007.31
2017-07-07T11:15:52.823Z,1007.27
2017-07-07T11:16:52.817Z,1007.3
2017-07-07T11:17:52.814Z,1007.35
2017-07-07T11:18:52.816Z,1007.32
2017-07-07T11:19:52.802Z,1007.32
2017-07-07T11:20:52.797Z,1007.39
2017-07-07T11:21:52.792Z,1007.39
2017-07-07T11:22:52.779Z,1007.41
2017-07-07T11:23:52.776Z,1007.41
2017-07-07T11:24:52.783Z,1007.45
2017-07-07T11:25:52.767Z,1007.39
2017-07-07T11:26:52.773Z,1007.4
2017-07-07T11:27:52.759Z,1007.35
2017-07-07T11:28:52.752Z,1007.43
2017-07-07T11:29:52.749Z,1007.4
2017-07-07T11:30:52.741Z,1007.43
2017-07-07T11:31:52.732Z,1007.42
2017-07-07T11:32:52.732Z,1007.44
2017-07-07T11:33:52.722Z,1007.4
2017-07-07T11:34:52.723Z,1007.47
2017-07-07T11:35:52.709Z,1007.49
2017-07-07T11:36:52.713Z,1007.53
2017-07-07T11:37:52.713Z,1007.51
2017-07-07T11:38:52.707Z,1007.52
2017-07-07T11:39:52.690Z,1007.49
2017-07-07T11:40:52.726Z,1007.5
2017-07-07T11:41:52.682Z,1007.48
2017-07-07T11:42:52.675Z,1007.51
2017-07-07T11:43:52.672Z,1007.47
2017-07-07T11:44:52.665Z,1007.46
2017-07-07T11:45:52.659Z,1007.45
2017-07-07T11:46:52.652Z,1007.48
2017-07-07T11:47:52.658Z,1007.43
2017-07-07T11:48:52.646Z,1007.4
2017-07-07T11:49:52.642Z,1007.41
2017-07-07T11:50:52.636Z,1007.42
2017-07-07T11:51:52.631Z,1007.43
2017-07-07T11:52:52.630Z,1007.44
2017-07-07T11:53:52.623Z,1007.49
2017-07-07T11:54:52.613Z,1007.49
2017-07-07T11:55:52.611Z,1007.47
2017-07-07T11:56:52.604Z,1007.44
2017-07-07T11:57:52.609Z,1007.48
2017-07-07T11:58:52.605Z,1007.46
2017-07-07T11:59:52.594Z,1007.44
2017-07-07T12:00:52.592Z,1007.43
2017-07-07T12:01:52.583Z,1007.39
2017-07-07T12:02:52.578Z,1007.39
2017-07-07T12:03:52.577Z,1007.41
2017-07-07T12:04:52.562Z,1007.41
2017-07-07T12:05:52.564Z,1007.42
2017-07-07T12:06:52.551Z,1007.48